Decoded Metar for YPDN (DARWIN (CIV/MIL) in AUSTRALIA) (IATA:N/A) | Meteo·Mobile Aviation Weather
aviador You're here:

YPDN Decoded Metar

DARWIN (CIV/MIL) in AUSTRALIA
Report Time2018-08-19 13:30:00
UTC Time2018-08-19 14:05:59
Flight Rules vfr VFR
Wind160° at 05 kt
W.Decomp.*RWY 18: 4.6 kt HW 1.9 kt LCW
RWY 11: 3.3 kt HW 3.7 kt RCW
W.Rank160° ranks 27
Current wind is below 160° avg. (5.8)
Visibility9999 m
Phenomena:N/A
Clouds:N/A
Expected CloudBase > 2,000 ft AGL from Temp-Dew spread
CeilingNone
Temp25°C (ISA +10)
Dew Point20°C (74% RH)
QNH1015 hPa
Density Alt1,519 ft
Elevation98 ft
Report Wrong Elevation
Raw Report
YPDN 191330Z 16005KT CAVOK 25/20 Q1015=

Extra information for YPDN:More info

Metar Taf Metar & Taf Last 4 Metars F.Rules Stats Wind Profile Meteogram Temp Stats Airport Information Weather charts Add Link Nearby VenuesMetar ALERT Operation Metar Decoded Social comments